createdAt,value
2023-03-05T00:01:28.012Z,99.90
2023-03-05T00:04:15.464Z,99.90
2023-03-05T00:07:01.228Z,99.90
2023-03-05T00:09:46.477Z,99.90
2023-03-05T00:12:32.178Z,99.90
2023-03-05T00:15:18.005Z,99.90
2023-03-05T00:18:03.819Z,99.90
2023-03-05T00:20:49.722Z,99.90
2023-03-05T00:23:35.244Z,99.90
2023-03-05T00:26:23.111Z,99.90
2023-03-05T00:29:09.408Z,99.90
2023-03-05T00:31:56.029Z,99.90
2023-03-05T00:34:41.595Z,99.90
2023-03-05T00:37:27.352Z,99.90
2023-03-05T00:40:13.468Z,99.90
2023-03-05T00:42:59.004Z,99.90
2023-03-05T00:45:44.662Z,99.90
2023-03-05T00:48:31.121Z,99.90
2023-03-05T00:51:16.469Z,99.90
2023-03-05T00:54:02.325Z,99.90
2023-03-05T00:56:49.135Z,99.90
2023-03-05T00:59:34.630Z,99.90
2023-03-05T01:02:20.256Z,99.90
2023-03-05T01:05:06.268Z,99.90
2023-03-05T01:07:55.899Z,99.90
2023-03-05T01:10:41.728Z,99.90
2023-03-05T01:13:27.519Z,99.90
2023-03-05T01:16:13.337Z,99.90
2023-03-05T01:18:58.926Z,99.90
2023-03-05T01:21:44.473Z,99.90
2023-03-05T01:24:31.414Z,99.90
2023-03-05T01:27:16.768Z,99.90
2023-03-05T01:30:02.482Z,99.90
2023-03-05T01:32:48.092Z,99.90
2023-03-05T01:35:33.581Z,99.90
2023-03-05T01:38:19.100Z,99.90
2023-03-05T01:41:04.837Z,99.90
2023-03-05T01:43:53.152Z,99.90
2023-03-05T01:46:39.141Z,99.90
2023-03-05T01:49:35.448Z,99.90
2023-03-05T01:52:23.116Z,99.90
2023-03-05T01:55:13.882Z,99.90
2023-03-05T01:58:08.017Z,99.90
2023-03-05T02:00:55.492Z,99.90
2023-03-05T02:03:42.362Z,99.90
2023-03-05T02:06:28.908Z,99.90
2023-03-05T02:09:14.796Z,99.90
2023-03-05T02:12:00.646Z,99.90
2023-03-05T02:14:50.275Z,99.90
2023-03-05T02:17:36.296Z,99.90
2023-03-05T02:20:24.825Z,99.90
2023-03-05T02:23:10.858Z,99.90
2023-03-05T02:25:56.881Z,99.90
2023-03-05T02:28:49.328Z,99.90
2023-03-05T02:31:34.578Z,99.90
2023-03-05T02:34:20.057Z,99.90
2023-03-05T02:37:09.117Z,99.90
2023-03-05T02:39:55.641Z,99.90
2023-03-05T02:42:42.424Z,99.90
2023-03-05T02:45:29.684Z,99.90
2023-03-05T02:48:15.222Z,99.90
2023-03-05T02:51:03.412Z,99.90
2023-03-05T02:53:49.097Z,99.90
2023-03-05T02:56:35.826Z,99.90
2023-03-05T02:59:21.365Z,99.90
2023-03-05T03:02:06.892Z,99.90
2023-03-05T03:04:52.438Z,99.90
2023-03-05T03:07:38.243Z,99.90
2023-03-05T03:10:24.279Z,99.90
2023-03-05T03:13:10.049Z,99.90
2023-03-05T03:16:03.489Z,99.90
2023-03-05T03:18:49.229Z,99.90
2023-03-05T03:21:34.735Z,99.90
2023-03-05T03:24:20.575Z,99.90
2023-03-05T03:27:06.005Z,99.90
2023-03-05T03:29:51.807Z,99.90
2023-03-05T03:32:37.475Z,99.90
2023-03-05T03:35:23.004Z,99.90
2023-03-05T03:38:08.511Z,99.90
2023-03-05T03:40:54.038Z,99.90
2023-03-05T03:43:39.526Z,99.90
2023-03-05T03:46:25.277Z,99.90
2023-03-05T03:49:21.851Z,99.90
2023-03-05T03:52:07.876Z,99.90
2023-03-05T03:54:55.773Z,99.90
2023-03-05T03:57:41.277Z,99.90
2023-03-05T04:00:27.200Z,99.90
2023-03-05T04:03:12.591Z,99.90
2023-03-05T04:05:58.403Z,99.90
2023-03-05T04:08:44.014Z,99.90
2023-03-05T04:11:29.546Z,99.90
2023-03-05T04:14:15.049Z,99.90
2023-03-05T04:17:00.757Z,99.90
2023-03-05T04:19:46.369Z,99.90
2023-03-05T04:22:31.955Z,99.90
2023-03-05T04:25:17.761Z,99.90
2023-03-05T04:28:03.525Z,99.90
2023-03-05T04:30:49.132Z,99.90
2023-03-05T04:33:34.633Z,99.90
2023-03-05T04:36:20.070Z,99.90
2023-03-05T04:39:05.667Z,99.90
2023-03-05T04:41:51.210Z,99.90
2023-03-05T04:44:36.787Z,99.90
2023-03-05T04:47:22.655Z,99.90
2023-03-05T04:50:09.022Z,99.90
2023-03-05T04:52:54.892Z,99.90
2023-03-05T04:55:40.733Z,99.90
2023-03-05T04:58:26.121Z,99.90
2023-03-05T05:01:11.711Z,99.90
2023-03-05T05:03:57.148Z,99.90
2023-03-05T05:06:42.668Z,99.90
2023-03-05T05:09:28.170Z,99.90
2023-03-05T05:12:13.691Z,99.90
2023-03-05T05:14:59.276Z,99.90
2023-03-05T05:17:44.879Z,99.90
2023-03-05T05:20:30.242Z,99.90
2023-03-05T05:23:16.798Z,99.90
2023-03-05T05:26:04.482Z,99.90
2023-03-05T05:28:50.258Z,99.90
2023-03-05T05:31:36.052Z,99.90
2023-03-05T05:34:21.526Z,99.90
2023-03-05T05:37:07.064Z,99.90
2023-03-05T05:39:52.950Z,99.90
2023-03-05T05:42:38.429Z,99.90
2023-03-05T05:45:24.192Z,99.90
2023-03-05T05:48:09.998Z,99.90
2023-03-05T05:50:55.834Z,99.90
2023-03-05T05:53:42.989Z,99.90
2023-03-05T05:56:28.450Z,99.90
2023-03-05T05:59:14.220Z,99.90
2023-03-05T06:01:59.809Z,99.90
2023-03-05T06:04:45.643Z,99.90
2023-03-05T06:07:31.673Z,99.90
2023-03-05T06:10:17.772Z,99.90
2023-03-05T06:13:03.047Z,99.90
2023-03-05T06:15:59.702Z,99.90
2023-03-05T06:18:45.770Z,99.90
2023-03-05T06:21:32.459Z,99.90
2023-03-05T06:24:19.350Z,99.90
2023-03-05T06:27:06.083Z,99.90
2023-03-05T06:29:56.679Z,99.90
2023-03-05T06:32:42.199Z,99.90
2023-03-05T06:35:27.773Z,99.90
2023-03-05T06:38:13.203Z,99.90
2023-03-05T06:41:05.856Z,99.90
2023-03-05T06:43:51.892Z,99.90
2023-03-05T06:46:39.945Z,99.90
2023-03-05T06:49:25.658Z,99.90
2023-03-05T06:52:12.782Z,99.90
2023-03-05T06:54:58.317Z,99.90
2023-03-05T06:57:43.690Z,99.90
2023-03-05T07:00:30.707Z,99.90
2023-03-05T07:03:16.181Z,99.90
2023-03-05T07:06:15.835Z,99.90
2023-03-05T07:09:02.283Z,99.90
2023-03-05T07:11:47.983Z,99.90
2023-03-05T07:14:33.232Z,99.90
2023-03-05T07:17:18.748Z,99.90
2023-03-05T07:20:05.938Z,99.90
2023-03-05T07:22:51.505Z,99.90
2023-03-05T07:25:38.963Z,99.90
2023-03-05T07:28:24.770Z,99.90
2023-03-05T07:31:22.248Z,99.90
2023-03-05T07:34:07.861Z,99.90
2023-03-05T07:36:53.605Z,99.90
2023-03-05T07:39:39.078Z,99.90
2023-03-05T07:42:24.964Z,99.90
2023-03-05T07:45:22.680Z,99.90
2023-03-05T07:48:12.185Z,99.90
2023-03-05T07:51:03.043Z,99.90
2023-03-05T07:53:50.759Z,99.90
2023-03-05T07:56:36.222Z,99.90
2023-03-05T07:59:21.992Z,99.90
2023-03-05T08:02:07.868Z,99.90
2023-03-05T08:04:53.287Z,99.90
2023-03-05T08:07:38.896Z,99.90
2023-03-05T08:10:24.473Z,99.90
2023-03-05T08:13:10.491Z,99.90
2023-03-05T08:15:56.254Z,99.90
2023-03-05T08:18:42.035Z,99.90
2023-03-05T08:21:30.525Z,99.90
2023-03-05T08:24:16.393Z,99.90
2023-03-05T08:27:01.822Z,99.90
2023-03-05T08:29:47.361Z,99.90
2023-03-05T08:32:33.130Z,99.90
2023-03-05T08:35:18.869Z,99.90
2023-03-05T08:38:05.257Z,99.90
2023-03-05T08:40:50.516Z,99.90
2023-03-05T08:43:36.815Z,99.90
2023-03-05T08:46:22.832Z,99.90
2023-03-05T08:49:08.603Z,99.90
2023-03-05T08:51:54.377Z,99.90
2023-03-05T08:54:39.958Z,99.90
2023-03-05T08:57:25.488Z,99.90
2023-03-05T09:00:12.697Z,99.90
2023-03-05T09:02:58.279Z,99.50
2023-03-05T09:05:43.820Z,97.60
2023-03-05T09:08:30.252Z,95.70
2023-03-05T09:11:16.143Z,95.60
2023-03-05T09:14:06.558Z,95.30
2023-03-05T09:16:51.946Z,95.10
2023-03-05T09:19:37.668Z,94.90
2023-03-05T09:22:23.295Z,95.00
2023-03-05T09:25:11.630Z,95.10
2023-03-05T09:27:57.340Z,93.90
2023-03-05T09:30:42.884Z,93.60
2023-03-05T09:33:28.244Z,93.00
2023-03-05T09:36:20.001Z,93.30
2023-03-05T09:39:07.017Z,93.60
2023-03-05T09:42:10.263Z,93.50
2023-03-05T09:45:16.383Z,93.40
2023-03-05T09:48:22.722Z,93.30
2023-03-05T09:51:16.443Z,92.90
2023-03-05T09:54:11.114Z,92.20
2023-03-05T09:57:01.621Z,92.00
2023-03-05T09:59:51.895Z,92.60
2023-03-05T10:02:44.802Z,92.50
2023-03-05T10:05:51.466Z,91.90
2023-03-05T10:08:49.076Z,91.80
2023-03-05T10:11:44.960Z,91.90
2023-03-05T10:14:38.121Z,92.30
2023-03-05T10:17:39.893Z,91.60
2023-03-05T10:20:38.817Z,92.00
2023-03-05T10:23:29.703Z,92.30
2023-03-05T10:26:32.172Z,92.10
2023-03-05T10:29:32.863Z,91.70
2023-03-05T10:32:45.043Z,91.20
2023-03-05T10:35:40.757Z,91.20
2023-03-05T10:38:50.821Z,90.80
2023-03-05T10:42:20.553Z,91.80
2023-03-05T10:45:26.025Z,91.40
2023-03-05T10:48:48.889Z,91.50
2023-03-05T10:52:09.715Z,91.00
2023-03-05T10:54:55.341Z,91.00
2023-03-05T10:57:41.140Z,90.50
2023-03-05T11:00:28.091Z,90.20
2023-03-05T11:03:14.046Z,89.40
2023-03-05T11:06:02.303Z,90.50
2023-03-05T11:08:48.434Z,90.30
2023-03-05T11:11:34.271Z,90.30
2023-03-05T11:14:31.302Z,88.50
2023-03-05T11:17:24.482Z,86.80
2023-03-05T11:20:31.480Z,88.00
2023-03-05T11:23:17.338Z,87.80
2023-03-05T11:26:13.654Z,88.30
2023-03-05T11:29:03.189Z,88.10
2023-03-05T11:31:49.365Z,87.40
2023-03-05T11:34:35.909Z,86.70
2023-03-05T11:37:30.314Z,86.60
2023-03-05T11:40:25.140Z,87.10
2023-03-05T11:43:17.061Z,87.30
2023-03-05T11:46:04.916Z,86.40
2023-03-05T11:48:50.618Z,86.80
2023-03-05T11:51:58.362Z,87.60
2023-03-05T11:55:14.728Z,87.60
2023-03-05T11:58:22.320Z,86.50
2023-03-05T12:01:51.227Z,86.60
2023-03-05T12:04:37.720Z,87.70
2023-03-05T12:07:40.053Z,87.00
2023-03-05T12:10:26.262Z,86.80
2023-03-05T12:13:38.838Z,86.10
2023-03-05T12:16:28.706Z,85.80
2023-03-05T12:19:20.104Z,85.40
2023-03-05T12:22:21.989Z,84.90
2023-03-05T12:25:26.333Z,84.00
2023-03-05T12:28:17.350Z,84.90
2023-03-05T12:31:06.736Z,86.10
2023-03-05T12:33:52.283Z,86.70
2023-03-05T12:36:39.802Z,84.10
2023-03-05T12:40:00.883Z,83.30
2023-03-05T12:42:48.423Z,82.80
2023-03-05T12:45:42.375Z,84.30
2023-03-05T12:48:27.924Z,82.80
2023-03-05T12:51:17.871Z,82.20
2023-03-05T12:54:34.507Z,82.40
2023-03-05T12:57:24.199Z,84.70
2023-03-05T13:00:22.311Z,82.50
2023-03-05T13:03:18.015Z,83.50
2023-03-05T13:06:06.632Z,84.10
2023-03-05T13:09:00.901Z,82.80
2023-03-05T13:11:49.764Z,82.20
2023-03-05T13:14:47.041Z,82.80
2023-03-05T13:17:52.069Z,82.60
2023-03-05T13:20:42.678Z,82.40
2023-03-05T13:23:29.369Z,81.30
2023-03-05T13:26:18.439Z,80.80
2023-03-05T13:29:09.843Z,81.10
2023-03-05T13:32:02.209Z,81.30
2023-03-05T13:34:48.266Z,80.20
2023-03-05T13:37:38.103Z,81.40
2023-03-05T13:40:29.495Z,80.10
2023-03-05T13:43:20.608Z,78.40
2023-03-05T13:46:06.276Z,77.50
2023-03-05T13:48:51.842Z,74.40
2023-03-05T13:51:59.236Z,73.50
2023-03-05T13:54:44.780Z,73.90
2023-03-05T13:57:45.093Z,74.10
2023-03-05T14:00:38.822Z,68.80
2023-03-05T14:03:28.175Z,65.60
2023-03-05T14:06:19.214Z,63.40
2023-03-05T14:09:25.629Z,64.80
2023-03-05T14:12:38.482Z,62.90
2023-03-05T14:15:30.378Z,64.40
2023-03-05T14:18:19.280Z,64.10
2023-03-05T14:21:13.044Z,64.70
2023-03-05T14:24:13.224Z,65.60
2023-03-05T14:27:05.539Z,66.20
2023-03-05T14:29:51.605Z,67.90
2023-03-05T14:32:37.792Z,67.10
2023-03-05T14:35:26.371Z,64.50
2023-03-05T14:38:22.016Z,60.00
2023-03-05T14:41:21.130Z,61.90
2023-03-05T14:44:16.107Z,63.80
2023-03-05T14:47:02.059Z,60.50
2023-03-05T14:49:47.588Z,61.40
2023-03-05T14:52:34.026Z,63.50
2023-03-05T14:55:22.942Z,61.80
2023-03-05T14:58:14.628Z,63.00
2023-03-05T15:01:00.357Z,59.90
2023-03-05T15:03:45.888Z,63.20
2023-03-05T15:06:36.169Z,64.60
2023-03-05T15:09:22.504Z,64.90
2023-03-05T15:12:09.513Z,65.20
2023-03-05T15:14:56.282Z,64.60
2023-03-05T15:17:44.446Z,65.70
2023-03-05T15:20:31.160Z,66.80
2023-03-05T15:23:17.096Z,66.10
2023-03-05T15:26:06.289Z,67.20
2023-03-05T15:28:52.113Z,67.80
2023-03-05T15:31:40.374Z,68.00
2023-03-05T15:34:26.097Z,68.60
2023-03-05T15:37:11.829Z,69.70
2023-03-05T15:39:57.302Z,70.50
2023-03-05T15:42:42.948Z,69.10
2023-03-05T15:45:31.321Z,65.60
2023-03-05T15:48:16.790Z,68.10
2023-03-05T15:51:05.592Z,66.50
2023-03-05T15:53:51.318Z,67.30
2023-03-05T15:56:36.961Z,69.30
2023-03-05T15:59:22.774Z,67.90
2023-03-05T16:02:08.543Z,66.90
2023-03-05T16:04:54.284Z,66.70
2023-03-05T16:07:42.728Z,67.40
2023-03-05T16:10:29.629Z,66.00
2023-03-05T16:13:18.572Z,66.60
2023-03-05T16:16:07.875Z,67.30
2023-03-05T16:18:53.917Z,68.10
2023-03-05T16:21:39.381Z,69.00
2023-03-05T16:24:24.953Z,67.70
2023-03-05T16:27:11.019Z,66.60
2023-03-05T16:29:58.073Z,69.20
2023-03-05T16:32:44.037Z,70.80
2023-03-05T16:35:29.998Z,72.60
2023-03-05T16:38:15.930Z,72.50
2023-03-05T16:41:09.156Z,72.60
2023-03-05T16:43:56.470Z,72.20
2023-03-05T16:46:43.837Z,73.20
2023-03-05T16:49:29.971Z,72.90
2023-03-05T16:52:19.795Z,72.90
2023-03-05T16:55:06.531Z,73.50
2023-03-05T16:57:52.506Z,72.50
2023-03-05T17:00:38.120Z,73.10
2023-03-05T17:03:23.907Z,73.60
2023-03-05T17:06:14.869Z,73.90
2023-03-05T17:09:01.458Z,74.90
2023-03-05T17:11:47.330Z,75.10
2023-03-05T17:14:33.000Z,75.40
2023-03-05T17:17:18.794Z,76.70
2023-03-05T17:20:05.063Z,76.50
2023-03-05T17:22:50.981Z,76.50
2023-03-05T17:25:37.544Z,76.10
2023-03-05T17:28:23.435Z,76.50
2023-03-05T17:31:09.377Z,77.40
2023-03-05T17:33:55.860Z,77.60
2023-03-05T17:36:41.505Z,77.60
2023-03-05T17:39:27.091Z,77.60
2023-03-05T17:42:13.023Z,78.20
2023-03-05T17:44:59.222Z,78.70
2023-03-05T17:47:45.156Z,78.80
2023-03-05T17:50:30.783Z,79.60
2023-03-05T17:53:16.743Z,78.30
2023-03-05T17:56:05.668Z,79.20
2023-03-05T17:58:52.133Z,78.60
2023-03-05T18:01:38.027Z,79.10
2023-03-05T18:04:23.706Z,79.90
2023-03-05T18:07:10.279Z,80.40
2023-03-05T18:09:55.784Z,80.60
2023-03-05T18:12:41.740Z,80.50
2023-03-05T18:15:28.257Z,80.30
2023-03-05T18:18:15.342Z,80.00
2023-03-05T18:21:01.050Z,80.30
2023-03-05T18:23:46.567Z,80.00
2023-03-05T18:26:32.113Z,80.60
2023-03-05T18:29:18.835Z,82.00
2023-03-05T18:32:04.645Z,82.40
2023-03-05T18:34:51.648Z,82.10
2023-03-05T18:37:39.772Z,82.50
2023-03-05T18:40:28.301Z,82.90
2023-03-05T18:43:14.430Z,83.50
2023-03-05T18:46:00.243Z,84.20
2023-03-05T18:48:48.098Z,85.30
2023-03-05T18:51:34.406Z,85.60
2023-03-05T18:54:20.087Z,85.30
2023-03-05T18:57:06.021Z,85.20
2023-03-05T18:59:51.723Z,84.90
2023-03-05T19:02:37.407Z,84.50
2023-03-05T19:05:25.279Z,84.50
2023-03-05T19:08:10.630Z,84.80
2023-03-05T19:10:56.266Z,84.80
2023-03-05T19:13:48.969Z,85.50
2023-03-05T19:16:40.523Z,85.80
2023-03-05T19:19:26.021Z,86.30
2023-03-05T19:22:12.371Z,86.70
2023-03-05T19:24:58.599Z,87.50
2023-03-05T19:27:44.726Z,87.70
2023-03-05T19:30:30.236Z,87.20
2023-03-05T19:33:15.966Z,87.90
2023-03-05T19:36:01.388Z,87.60
2023-03-05T19:38:48.680Z,88.00
2023-03-05T19:41:36.420Z,88.50
2023-03-05T19:44:22.175Z,89.00
2023-03-05T19:47:07.806Z,89.60
2023-03-05T19:49:53.578Z,89.80
2023-03-05T19:52:39.045Z,90.10
2023-03-05T19:55:24.666Z,90.00
2023-03-05T19:58:10.198Z,90.20
2023-03-05T20:00:55.801Z,90.30
2023-03-05T20:03:43.664Z,91.00
2023-03-05T20:06:30.634Z,91.20
2023-03-05T20:09:17.232Z,91.10
2023-03-05T20:12:05.557Z,91.50
2023-03-05T20:14:51.191Z,91.30
2023-03-05T20:17:36.653Z,91.70
2023-03-05T20:20:22.397Z,92.00
2023-03-05T20:23:08.086Z,92.20
2023-03-05T20:25:53.480Z,92.40
2023-03-05T20:28:39.073Z,92.50
2023-03-05T20:31:26.942Z,92.60
2023-03-05T20:34:15.720Z,92.60
2023-03-05T20:37:01.584Z,92.40
2023-03-05T20:39:47.792Z,92.10
2023-03-05T20:42:33.544Z,91.80
2023-03-05T20:45:19.023Z,91.40
2023-03-05T20:48:04.710Z,91.30
2023-03-05T20:50:51.074Z,91.30
2023-03-05T20:53:36.662Z,91.30
2023-03-05T20:56:22.373Z,91.20
2023-03-05T20:59:09.106Z,91.50
2023-03-05T21:01:54.639Z,91.30
2023-03-05T21:04:40.727Z,91.90
2023-03-05T21:07:28.080Z,91.80
2023-03-05T21:10:14.192Z,91.80
2023-03-05T21:13:00.980Z,92.20
2023-03-05T21:15:46.503Z,92.50
2023-03-05T21:18:31.938Z,92.50
2023-03-05T21:21:18.059Z,92.40
2023-03-05T21:24:03.808Z,92.50
2023-03-05T21:26:49.455Z,92.20
2023-03-05T21:29:35.162Z,92.30
2023-03-05T21:32:20.783Z,92.00
2023-03-05T21:35:06.738Z,92.10
2023-03-05T21:37:52.646Z,92.10
2023-03-05T21:40:45.328Z,92.10
2023-03-05T21:43:31.648Z,92.30
2023-03-05T21:46:17.735Z,92.20
2023-03-05T21:49:03.705Z,92.40
2023-03-05T21:52:03.353Z,92.80
2023-03-05T21:54:48.843Z,93.20
2023-03-05T21:57:34.555Z,93.50
2023-03-05T22:00:23.141Z,93.50
2023-03-05T22:03:08.688Z,93.50
2023-03-05T22:05:54.766Z,93.30
2023-03-05T22:08:40.992Z,93.30
2023-03-05T22:11:26.705Z,93.10
2023-03-05T22:14:12.188Z,93.00
2023-03-05T22:17:02.126Z,93.00
2023-03-05T22:19:47.659Z,93.40
2023-03-05T22:22:33.510Z,93.20
2023-03-05T22:25:19.200Z,92.90
2023-03-05T22:28:05.638Z,93.40
2023-03-05T22:30:51.598Z,92.80
2023-03-05T22:33:37.288Z,92.20
2023-03-05T22:36:23.711Z,92.30
2023-03-05T22:39:09.492Z,91.60
2023-03-05T22:41:55.108Z,91.30
2023-03-05T22:44:40.653Z,91.20
2023-03-05T22:47:27.269Z,91.10
2023-03-05T22:50:13.096Z,91.20
2023-03-05T22:52:58.595Z,91.40
2023-03-05T22:55:44.035Z,91.30
2023-03-05T22:58:29.597Z,91.70
2023-03-05T23:01:23.663Z,92.10
2023-03-05T23:04:18.728Z,92.30
2023-03-05T23:07:04.418Z,92.50
2023-03-05T23:09:59.854Z,92.80
2023-03-05T23:12:51.249Z,93.00
2023-03-05T23:15:39.022Z,93.00
2023-03-05T23:18:24.793Z,93.00
2023-03-05T23:21:10.359Z,93.30
2023-03-05T23:23:57.597Z,93.50
2023-03-05T23:26:43.326Z,93.80
2023-03-05T23:29:30.402Z,93.70
2023-03-05T23:32:16.202Z,93.70
2023-03-05T23:35:01.618Z,93.40
2023-03-05T23:37:47.622Z,93.40
2023-03-05T23:40:41.167Z,93.80
2023-03-05T23:43:26.844Z,93.80
2023-03-05T23:46:12.520Z,93.90
2023-03-05T23:48:57.956Z,94.00
2023-03-05T23:51:43.466Z,93.80
2023-03-05T23:54:28.922Z,93.60
2023-03-05T23:57:14.560Z,93.30
2023-03-05T23:59:59.986Z,93.90
